KWF weather

Waterfall Seaplane Base
Waterfall, Alaska, United States

Public forecast

Using degrees Fahrenheit for public forecast. Weather courtesy of forecast.io.

Closest aviation weather report (METAR) to Waterfall Seaplane Base

Report is more than 6 hours old.

Closest report is Hydaburg Seaplane Base, 15.2 nm (28.1 km) ESE. Retrieved 2019/10/30 18:09 UTC (2 months ago):

PAHY 301809Z AUTO 00000KT 10SM FEW010 OVC018 09/08 A3029 RMK AO2

Closest aviation forecast (TAF) to Waterfall Seaplane Base

Closest forecast is Klawock Airport, 17.9 nm (33.2 km) NNE. Retrieved 2019-12-15 00:15 UTC (5 hours ago):

TAF COR PAKW 150012Z 1500/1524 03006KT P6SM BKN020 TEMPO 1500/1504 BKN009 FM150800 VRB03KT 3SM BR SCT002 FM151800 05007KT P6SM OVC025 AMD LTD TO CLD VIS AND WIND